Time;durP1;ratioP1;P1;durP2;ratioP2;P2;SDS_P1;SDS_P2;PMS_P1;PMS_P2;Temp;Humidity;BMP_temperature;BMP_pressure;BME280_temperature;BME280_humidity;BME280_pressure;Samples;Min_cycle;Max_cycle;Signal;HPM_P1;HPM_P2
2023/05/10 00:01:40;;;;;;;3.90;1.10;;;;;;;20.39;70.40;99777.50;5069654;28;20183;-62
2023/05/10 00:04:05;;;;;;;2.30;0.80;;;;;;;20.38;70.50;99785.31;5069842;28;20159;-62
2023/05/10 00:06:31;;;;;;;2.13;1.00;;;;;;;20.37;70.75;99783.66;5050431;28;20433;-61
2023/05/10 00:08:57;;;;;;;3.23;0.70;;;;;;;20.38;70.66;99770.16;5069445;28;20234;-63
2023/05/10 00:11:22;;;;;;;1.90;0.83;;;;;;;20.38;70.48;99778.75;5068027;28;20578;-62
2023/05/10 00:13:47;;;;;;;2.03;0.73;;;;;;;20.38;70.44;99779.56;5067931;28;20584;-61
2023/05/10 00:16:13;;;;;;;2.77;1.00;;;;;;;20.37;70.73;99780.78;5068990;28;20634;-62
2023/05/10 00:18:39;;;;;;;2.93;0.77;;;;;;;20.38;70.44;99784.47;5068671;28;20186;-62
2023/05/10 00:21:06;;;;;;;1.90;0.90;;;;;;;20.37;70.31;99783.66;5051446;28;20203;-62
2023/05/10 00:23:31;;;;;;;2.17;0.70;;;;;;;20.37;70.27;99783.66;5069257;28;20409;-62
2023/05/10 00:25:56;;;;;;;3.93;0.80;;;;;;;20.37;70.31;99795.13;5069278;28;20174;-62
2023/05/10 00:28:22;;;;;;;2.43;0.90;;;;;;;20.37;70.35;99792.25;5067440;28;20194;-63
2023/05/10 00:30:48;;;;;;;1.80;0.90;;;;;;;20.37;70.55;99791.44;5068393;28;20191;-62
2023/05/10 00:33:13;;;;;;;3.07;0.80;;;;;;;20.37;70.27;99789.38;5069422;28;20179;-62
2023/05/10 00:35:38;;;;;;;3.67;0.77;;;;;;;20.36;70.48;99787.75;5050386;28;20195;-62
2023/05/10 00:38:04;;;;;;;1.50;0.60;;;;;;;20.36;70.46;99786.94;5069169;28;20171;-62
2023/05/10 00:40:30;;;;;;;3.37;1.00;;;;;;;20.36;70.45;99789.81;5068247;28;20187;-63
2023/05/10 00:42:56;;;;;;;2.90;0.90;;;;;;;20.35;70.43;99791.84;5069375;28;20191;-62
2023/05/10 00:45:22;;;;;;;2.53;0.80;;;;;;;20.35;70.23;99797.56;5072497;28;20458;-62
2023/05/10 00:47:47;;;;;;;3.43;0.90;;;;;;;20.36;70.26;99778.34;5070993;28;20453;-62
2023/05/10 00:50:13;;;;;;;1.60;0.70;;;;;;;20.36;70.43;99786.94;5072346;28;20187;-62
2023/05/10 00:52:38;;;;;;;2.03;0.80;;;;;;;20.34;70.13;99781.59;5054198;28;20182;-62
2023/05/10 00:55:04;;;;;;;1.40;0.60;;;;;;;20.35;70.15;99777.50;5071412;28;20201;-62
2023/05/10 00:57:30;;;;;;;2.20;0.83;;;;;;;20.35;70.28;99783.25;5072807;28;20240;-62
2023/05/10 00:59:55;;;;;;;4.70;0.60;;;;;;;20.35;70.20;99779.53;5055394;28;20441;-62
2023/05/10 01:02:21;;;;;;;2.80;0.83;;;;;;;20.35;70.19;99779.53;5080382;28;20650;-62
2023/05/10 01:04:47;;;;;;;2.87;0.90;;;;;;;20.35;70.23;99785.28;5055023;28;20167;-62
2023/05/10 01:07:12;;;;;;;3.63;0.70;;;;;;;20.35;70.24;99788.16;5072018;28;20627;-62
2023/05/10 01:09:38;;;;;;;2.70;0.80;;;;;;;20.34;70.10;99781.59;5071756;28;20456;-62
2023/05/10 01:12:06;;;;;;;11.80;0.93;;;;;;;20.34;70.20;99781.59;5072801;28;20611;-60
2023/05/10 01:14:32;;;;;;;5.23;0.80;;;;;;;20.33;70.56;99782.84;5071937;28;20183;-62
2023/05/10 01:16:57;;;;;;;2.00;0.70;;;;;;;20.34;70.49;99781.59;5053990;28;20840;-60
2023/05/10 01:19:25;;;;;;;1.70;0.70;;;;;;;20.34;70.41;99780.78;5052770;28;20510;-60
2023/05/10 01:22:10;;;;;;;2.93;0.80;;;;;;;20.33;70.33;99777.09;5051558;28;20188;-61
2023/05/10 01:24:44;;;;;;;3.63;0.90;;;;;;;20.33;70.11;99771.38;5052919;28;20421;-60
2023/05/10 01:27:24;;;;;;;5.10;0.87;;;;;;;20.32;70.21;99775.44;5052555;28;20429;-61
2023/05/10 01:30:02;;;;;;;2.70;1.30;;;;;;;20.33;70.41;99765.63;5051097;28;20430;-61
2023/05/10 01:33:06;;;;;;;5.43;0.80;;;;;;;20.32;70.29;99769.72;5052365;28;20438;-60
2023/05/10 01:35:47;;;;;;;1.83;0.73;;;;;;;20.33;70.29;99771.38;4997262;28;21006;-61
2023/05/10 01:38:16;;;;;;;1.63;0.80;;;;;;;20.33;70.04;99782.84;5052576;28;20829;-61
2023/05/10 01:41:09;;;;;;;1.40;0.53;;;;;;;20.33;70.27;99777.09;5054632;28;20428;-60
2023/05/10 01:43:56;;;;;;;2.10;0.70;;;;;;;20.32;70.38;99781.19;5051145;28;20441;-60
2023/05/10 01:46:32;;;;;;;2.33;0.90;;;;;;;20.32;70.00;99775.44;5033793;28;20430;-60
2023/05/10 01:48:59;;;;;;;1.50;0.70;;;;;;;20.31;70.44;99779.53;5033762;28;20854;-60
2023/05/10 01:51:25;;;;;;;1.63;0.80;;;;;;;20.32;70.04;99780.38;5051953;28;20430;-60
2023/05/10 01:53:52;;;;;;;2.07;0.70;;;;;;;20.32;70.28;99781.19;5033045;28;20437;-60
2023/05/10 01:56:19;;;;;;;2.23;0.70;;;;;;;20.31;70.20;99782.41;5049726;28;20576;-61
2023/05/10 01:58:45;;;;;;;1.97;0.83;;;;;;;20.31;70.28;99788.13;5051861;28;20932;-60
2023/05/10 02:01:11;;;;;;;5.00;0.70;;;;;;;20.31;70.24;99785.28;5051499;28;20414;-61
2023/05/10 02:03:36;;;;;;;2.60;0.70;;;;;;;20.31;70.40;99791.00;5025716;28;20817;-60
2023/05/10 02:06:02;;;;;;;2.53;1.00;;;;;;;20.31;70.19;99802.47;5051550;28;20238;-62
2023/05/10 02:08:27;;;;;;;1.50;0.70;;;;;;;20.31;70.21;99805.34;5051223;28;20204;-61
2023/05/10 02:10:55;;;;;;;2.00;0.80;;;;;;;20.31;70.29;99808.22;5033829;28;20163;-61
2023/05/10 02:13:20;;;;;;;2.07;0.70;;;;;;;20.31;70.27;99813.94;5032884;28;20238;-60
2023/05/10 02:15:49;;;;;;;1.70;0.80;;;;;;;20.31;70.37;99808.22;5038063;28;20504;-60
2023/05/10 02:18:15;;;;;;;1.60;0.73;;;;;;;20.31;70.11;99811.06;5033461;28;20278;-60
2023/05/10 02:20:40;;;;;;;2.87;1.37;;;;;;;20.30;70.06;99815.19;5020586;28;20437;-60
2023/05/10 02:23:06;;;;;;;1.80;0.80;;;;;;;20.31;70.29;99807.41;5053314;28;20189;-60
2023/05/10 02:25:31;;;;;;;2.17;0.77;;;;;;;20.31;70.11;99811.06;5052768;28;20163;-60
2023/05/10 02:27:57;;;;;;;1.97;0.60;;;;;;;20.31;70.08;99813.16;5052040;28;20186;-61
2023/05/10 02:30:23;;;;;;;1.70;0.90;;;;;;;20.30;69.91;99818.03;5035603;28;20167;-61
2023/05/10 02:32:49;;;;;;;1.60;0.70;;;;;;;20.31;70.13;99813.16;5034869;28;20191;-60
2023/05/10 02:35:15;;;;;;;1.90;0.60;;;;;;;20.29;69.95;99804.94;5052258;28;20187;-60
2023/05/10 02:37:40;;;;;;;1.63;0.70;;;;;;;20.31;70.15;99813.16;5052063;28;20449;-61
2023/05/10 02:40:06;;;;;;;2.60;0.73;;;;;;;20.30;69.90;99808.59;5071476;28;20233;-60
2023/05/10 02:42:34;;;;;;;1.60;0.70;;;;;;;20.29;70.28;99813.53;5052032;28;20214;-61
2023/05/10 02:45:01;;;;;;;1.50;0.73;;;;;;;20.30;70.05;99814.34;5070854;28;20206;-61
2023/05/10 02:47:27;;;;;;;3.30;0.60;;;;;;;20.30;70.04;99815.19;5052496;28;20397;-60
2023/05/10 02:49:53;;;;;;;4.00;0.70;;;;;;;20.29;70.15;99813.53;5071189;28;20425;-61
2023/05/10 02:52:21;;;;;;;1.70;0.60;;;;;;;20.29;70.22;99809.84;5071262;28;20429;-61
2023/05/10 02:54:50;;;;;;;1.40;0.73;;;;;;;20.29;69.93;99813.53;5052658;28;20183;-60
2023/05/10 02:57:31;;;;;;;1.50;0.60;;;;;;;20.29;70.13;99818.44;5053057;28;20461;-60
2023/05/10 02:59:57;;;;;;;1.37;0.60;;;;;;;20.29;69.98;99816.41;5076995;28;20455;-60
2023/05/10 03:02:22;;;;;;;2.87;0.60;;;;;;;20.29;69.89;99824.19;5065120;28;20425;-61
2023/05/10 03:04:48;;;;;;;1.60;0.77;;;;;;;20.28;70.06;99816.81;5052786;28;20674;-61
2023/05/10 03:07:13;;;;;;;1.80;0.90;;;;;;;20.28;69.94;99814.78;5069051;28;20179;-61
2023/05/10 03:09:39;;;;;;;1.40;0.70;;;;;;;20.28;69.95;99826.25;5070654;28;20163;-61
2023/05/10 03:12:42;;;;;;;1.50;0.73;;;;;;;20.29;69.93;99824.19;5070454;28;20631;-61
2023/05/10 03:15:16;;;;;;;5.10;0.60;;;;;;;20.28;69.91;99823.38;5051840;28;20589;-62
2023/05/10 03:18:01;;;;;;;1.47;0.60;;;;;;;20.28;70.09;99825.41;5052291;28;20456;-61
2023/05/10 03:20:40;;;;;;;2.40;0.70;;;;;;;20.28;70.08;99831.13;5052499;28;20444;-62
2023/05/10 03:23:17;;;;;;;1.50;0.60;;;;;;;20.28;70.15;99831.97;5032790;28;20429;-61
2023/05/10 03:25:43;;;;;;;1.40;0.70;;;;;;;20.28;69.96;99834.84;5050280;28;20881;-61
2023/05/10 03:28:09;;;;;;;1.60;0.60;;;;;;;20.28;70.15;99829.09;5032111;28;20422;-61
2023/05/10 03:30:35;;;;;;;3.00;0.77;;;;;;;20.28;70.02;99822.53;5059234;28;20193;-61
2023/05/10 03:33:07;;;;;;;3.00;0.70;;;;;;;20.27;69.94;99824.56;5052271;28;20186;-61
2023/05/10 03:35:32;;;;;;;1.70;0.77;;;;;;;20.27;69.76;99829.50;5052523;28;20471;-60
2023/05/10 03:37:58;;;;;;;1.73;0.60;;;;;;;20.28;70.19;99828.28;5069484;28;20456;-61
2023/05/10 03:40:24;;;;;;;2.53;0.80;;;;;;;20.27;69.96;99827.44;5068199;28;20194;-61
2023/05/10 03:42:49;;;;;;;1.30;0.60;;;;;;;20.27;69.85;99833.16;5069139;28;20926;-61
2023/05/10 03:45:15;;;;;;;1.73;0.87;;;;;;;20.27;70.10;99832.38;5052787;28;20499;-61
2023/05/10 03:47:40;;;;;;;1.77;0.60;;;;;;;20.27;69.77;99847.50;5051020;28;20167;-61
2023/05/10 03:50:06;;;;;;;1.77;0.60;;;;;;;20.27;70.01;99841.78;5069021;28;20168;-62
2023/05/10 03:52:32;;;;;;;1.30;0.60;;;;;;;20.26;69.87;99831.53;5030820;28;20184;-62
2023/05/10 03:54:57;;;;;;;1.60;0.67;;;;;;;20.26;69.85;99834.41;5049750;28;20798;-61
2023/05/10 03:57:23;;;;;;;1.50;0.60;;;;;;;20.27;69.87;99838.09;5059095;28;20207;-61
2023/05/10 03:59:48;;;;;;;2.00;0.67;;;;;;;20.27;70.04;99836.03;5069561;28;20175;-61
2023/05/10 04:02:14;;;;;;;1.90;0.80;;;;;;;20.26;70.11;99840.13;5071960;28;20171;-61
2023/05/10 04:04:39;;;;;;;1.67;0.70;;;;;;;20.26;69.78;99837.28;5068394;28;20179;-61
2023/05/10 04:07:05;;;;;;;1.40;0.60;;;;;;;20.26;70.09;99837.28;5069218;28;20229;-61
2023/05/10 04:09:30;;;;;;;1.80;0.67;;;;;;;20.26;69.88;99834.41;5066894;28;20210;-62
2023/05/10 04:11:56;;;;;;;2.40;0.70;;;;;;;20.26;69.88;99843.00;5066558;28;20179;-60
2023/05/10 04:14:21;;;;;;;2.80;0.70;;;;;;;20.27;69.86;99843.84;5067349;28;20178;-61
2023/05/10 04:16:47;;;;;;;1.43;0.80;;;;;;;20.26;69.80;99842.19;5068368;28;20261;-61
2023/05/10 04:19:12;;;;;;;1.40;0.70;;;;;;;20.25;70.01;99849.97;5065891;28;20194;-60
2023/05/10 04:21:37;;;;;;;4.07;0.90;;;;;;;20.27;69.87;99858.16;5066291;28;20202;-61
2023/05/10 04:24:03;;;;;;;2.37;0.70;;;;;;;20.26;69.85;99857.34;5049038;28;20193;-61
2023/05/10 04:26:29;;;;;;;2.13;0.80;;;;;;;20.26;69.83;99854.47;5069039;28;20167;-62
2023/05/10 04:28:54;;;;;;;1.30;0.60;;;;;;;20.26;70.07;99859.41;5068497;28;20529;-61
2023/05/10 04:31:20;;;;;;;1.60;0.73;;;;;;;20.26;69.89;99847.94;5051370;28;20221;-62
2023/05/10 04:33:45;;;;;;;1.33;0.60;;;;;;;20.26;70.01;99847.94;5069137;28;20186;-61
2023/05/10 04:36:10;;;;;;;1.50;0.60;;;;;;;20.25;69.91;99858.56;5050191;28;20570;-61
2023/05/10 04:38:36;;;;;;;4.30;0.70;;;;;;;20.25;69.86;99849.97;5068092;28;20232;-61
2023/05/10 04:41:08;;;;;;;1.30;0.60;;;;;;;20.26;69.82;99853.66;5069205;28;20186;-61
2023/05/10 04:43:33;;;;;;;2.13;0.50;;;;;;;20.24;69.96;99847.50;5069267;28;20182;-61
2023/05/10 04:45:59;;;;;;;2.40;0.63;;;;;;;20.26;69.87;99856.53;5051052;28;20440;-62
2023/05/10 04:48:24;;;;;;;2.20;0.80;;;;;;;20.25;69.81;99854.88;5051012;28;20541;-61
2023/05/10 04:50:50;;;;;;;5.67;0.90;;;;;;;20.25;69.80;99855.69;5068806;28;20182;-61
2023/05/10 04:53:15;;;;;;;1.40;0.50;;;;;;;20.25;69.63;99866.34;5067956;28;20206;-61
2023/05/10 04:55:41;;;;;;;1.40;0.60;;;;;;;20.25;69.94;99861.44;5071500;28;20179;-61
2023/05/10 04:58:07;;;;;;;3.00;0.70;;;;;;;20.24;69.76;99868.41;5049715;28;20222;-62
2023/05/10 05:00:33;;;;;;;1.50;0.50;;;;;;;20.25;69.69;99866.34;5068442;28;20175;-62
2023/05/10 05:02:58;;;;;;;4.20;0.70;;;;;;;20.25;69.62;99867.16;5069010;28;20187;-62
2023/05/10 05:05:24;;;;;;;1.73;0.83;;;;;;;20.23;69.81;99858.16;5068851;28;20658;-62
2023/05/10 05:07:49;;;;;;;1.20;0.50;;;;;;;20.25;69.82;99855.69;5067964;28;20669;-62
2023/05/10 05:10:15;;;;;;;3.83;0.70;;;;;;;20.26;69.77;99859.41;5069021;28;20217;-61
2023/05/10 05:12:40;;;;;;;1.50;0.60;;;;;;;20.25;69.59;99857.72;5068424;28;20228;-62
2023/05/10 05:15:08;;;;;;;2.80;0.63;;;;;;;20.25;69.76;99854.88;5068456;28;20160;-61
2023/05/10 05:17:33;;;;;;;1.43;0.70;;;;;;;20.25;69.91;99867.16;5069003;28;20576;-62
2023/05/10 05:19:58;;;;;;;2.70;0.60;;;;;;;20.25;69.86;99869.19;5048800;28;20437;-62
2023/05/10 05:22:28;;;;;;;1.47;0.70;;;;;;;20.26;69.90;99868.00;5067033;28;20669;-61
2023/05/10 05:24:54;;;;;;;2.63;0.70;;;;;;;20.25;69.81;99875.75;5063558;28;20615;-61
2023/05/10 05:27:23;;;;;;;1.70;0.60;;;;;;;20.25;69.83;99887.22;5048294;28;20428;-62
2023/05/10 05:29:49;;;;;;;2.80;0.53;;;;;;;20.25;69.87;99892.97;5051607;28;20414;-61
2023/05/10 05:32:15;;;;;;;2.37;0.67;;;;;;;20.25;69.69;99895.00;5071696;28;20524;-61
2023/05/10 05:34:40;;;;;;;3.67;0.80;;;;;;;20.25;69.90;99889.25;5071934;28;20421;-62
2023/05/10 05:37:06;;;;;;;1.80;0.70;;;;;;;20.24;69.98;99888.47;5068542;28;20681;-62
2023/05/10 05:39:31;;;;;;;1.87;0.70;;;;;;;20.24;69.83;99894.19;5071960;28;20642;-62
2023/05/10 05:41:58;;;;;;;1.97;0.60;;;;;;;20.25;69.76;99909.34;5072950;28;20837;-62
2023/05/10 05:44:23;;;;;;;1.47;0.77;;;;;;;20.25;69.72;99904.44;5053005;28;20206;-62
2023/05/10 05:46:49;;;;;;;3.60;0.60;;;;;;;20.25;69.60;99901.56;5072454;28;20924;-62
2023/05/10 05:49:14;;;;;;;1.70;0.80;;;;;;;20.24;69.79;99905.66;5071088;28;20183;-62
2023/05/10 05:51:39;;;;;;;1.63;0.70;;;;;;;20.24;69.80;99910.56;5071382;28;20183;-62
2023/05/10 05:54:06;;;;;;;1.50;0.70;;;;;;;20.24;69.91;99911.41;5071538;28;20513;-62
2023/05/10 05:56:31;;;;;;;1.60;0.87;;;;;;;20.25;69.69;99915.06;5051920;28;20203;-62
2023/05/10 05:58:57;;;;;;;2.50;0.50;;;;;;;20.24;69.79;99911.41;5071743;28;20818;-61
2023/05/10 06:01:22;;;;;;;7.97;0.80;;;;;;;20.23;69.95;99924.09;5070640;28;20226;-62
2023/05/10 06:03:48;;;;;;;2.77;0.97;;;;;;;20.24;70.02;99919.16;5071312;28;20190;-62
2023/05/10 06:06:13;;;;;;;1.50;0.67;;;;;;;20.23;69.74;99926.97;5070196;28;20234;-62
2023/05/10 06:08:38;;;;;;;1.50;0.70;;;;;;;20.23;69.76;99926.97;5073450;28;20275;-60
2023/05/10 06:11:04;;;;;;;4.03;0.60;;;;;;;20.24;69.78;99936.38;5053250;28;20225;-60
2023/05/10 06:13:32;;;;;;;2.80;0.60;;;;;;;20.23;69.79;99938.44;5052338;28;20186;-61
2023/05/10 06:15:58;;;;;;;1.33;0.67;;;;;;;20.23;69.71;99935.56;5070534;28;20227;-60
2023/05/10 06:18:23;;;;;;;1.50;0.60;;;;;;;20.26;69.75;99929.00;5064929;28;20837;-63
2023/05/10 06:20:49;;;;;;;4.93;0.77;;;;;;;20.38;70.41;99945.88;5058194;28;20511;-63
2023/05/10 06:23:15;;;;;;;3.13;1.27;;;;;;;20.62;69.95;99938.59;5053979;28;20195;-63
2023/05/10 06:25:40;;;;;;;4.30;2.20;;;;;;;20.79;70.18;99934.97;5050375;28;20454;-63
2023/05/10 06:28:06;;;;;;;5.53;1.97;;;;;;;20.67;69.21;99943.94;5055691;28;20186;-63
2023/05/10 06:30:31;;;;;;;6.60;1.40;;;;;;;20.45;69.03;99942.19;5063751;28;20218;-63
2023/05/10 06:32:56;;;;;;;3.70;1.20;;;;;;;20.29;66.85;99947.44;5048666;28;20176;-63
2023/05/10 06:35:22;;;;;;;5.27;1.30;;;;;;;20.28;68.59;99951.53;5048277;28;20583;-64
2023/05/10 06:37:48;;;;;;;5.20;1.00;;;;;;;20.29;66.65;99956.88;5058249;28;20211;-62
2023/05/10 06:40:14;;;;;;;4.27;1.10;;;;;;;20.36;66.91;99961.84;5032800;28;20218;-63
2023/05/10 06:42:39;;;;;;;4.43;0.90;;;;;;;20.40;66.50;99960.63;5065666;28;20469;-62
2023/05/10 06:45:05;;;;;;;2.00;1.17;;;;;;;20.46;66.91;99959.00;5049347;28;20194;-60
2023/05/10 06:47:31;;;;;;;2.73;1.00;;;;;;;20.44;66.76;99960.63;5064603;28;20194;-61
2023/05/10 06:49:56;;;;;;;3.80;1.23;;;;;;;20.44;67.27;99955.72;5051587;28;20860;-62
2023/05/10 06:52:23;;;;;;;3.00;1.40;;;;;;;20.44;67.04;99960.63;5068655;28;20229;-63
2023/05/10 06:54:50;;;;;;;4.57;1.07;;;;;;;20.43;67.12;99964.72;5069069;28;20190;-62
2023/05/10 06:57:15;;;;;;;3.20;0.80;;;;;;;20.49;66.86;99965.97;5070904;28;20465;-62
2023/05/10 06:59:41;;;;;;;3.03;1.10;;;;;;;20.50;67.07;99965.59;5083671;28;20531;-63
2023/05/10 07:02:06;;;;;;;1.40;0.60;;;;;;;20.52;66.72;99971.72;5089383;28;20652;-62
2023/05/10 07:04:32;;;;;;;6.43;1.87;;;;;;;20.53;68.01;99964.75;5085812;28;20695;-63
2023/05/10 07:06:57;;;;;;;2.33;1.20;;;;;;;20.55;68.53;99972.97;5052917;28;20194;-62
2023/05/10 07:09:24;;;;;;;2.73;1.00;;;;;;;20.56;68.45;99969.72;5051998;28;20205;-63
2023/05/10 07:11:49;;;;;;;2.57;1.00;;;;;;;20.58;68.50;99972.97;5068743;28;20255;-62
2023/05/10 07:14:15;;;;;;;5.07;1.13;;;;;;;20.66;69.17;99974.66;5069619;28;20744;-63
2023/05/10 07:16:41;;;;;;;2.17;1.13;;;;;;;20.63;69.50;99983.25;5068749;28;20230;-62
2023/05/10 07:19:07;;;;;;;1.87;0.93;;;;;;;20.58;69.55;99977.91;5069588;28;20206;-62
2023/05/10 07:21:32;;;;;;;4.40;1.30;;;;;;;20.50;69.42;99974.19;5068129;28;20459;-62
2023/05/10 07:23:58;;;;;;;5.23;1.33;;;;;;;20.47;69.60;99979.91;5070015;28;20171;-63
2023/05/10 07:26:23;;;;;;;3.77;1.03;;;;;;;20.43;69.11;99976.19;5069051;28;20669;-64
2023/05/10 07:28:49;;;;;;;3.50;1.30;;;;;;;20.36;67.57;99968.38;5050166;28;20191;-64
2023/05/10 07:31:14;;;;;;;3.10;1.60;;;;;;;20.34;68.90;99979.44;5059957;28;20183;-62
2023/05/10 07:33:40;;;;;;;6.53;1.20;;;;;;;20.35;68.29;99978.22;5068394;28;20187;-63
2023/05/10 07:36:06;;;;;;;3.50;1.67;;;;;;;20.34;68.44;99978.59;5069478;28;20255;-63
2023/05/10 07:38:31;;;;;;;4.83;1.60;;;;;;;20.31;68.35;99985.97;5069723;28;20194;-63
2023/05/10 07:40:57;;;;;;;5.33;1.40;;;;;;;20.31;68.39;99988.81;5069916;28;20179;-62
2023/05/10 07:43:22;;;;;;;2.77;1.20;;;;;;;20.32;68.19;99986.78;5064134;28;20188;-61
2023/05/10 07:45:48;;;;;;;3.63;1.10;;;;;;;20.36;67.86;99982.72;5049952;28;20237;-62
2023/05/10 07:48:13;;;;;;;3.03;1.47;;;;;;;20.39;68.07;99984.78;5032473;28;20175;-62
2023/05/10 07:50:39;;;;;;;3.20;1.30;;;;;;;20.41;68.05;99987.25;5053039;28;20190;-63
2023/05/10 07:53:04;;;;;;;2.47;1.40;;;;;;;20.43;67.96;99982.78;5068979;28;20172;-62
2023/05/10 07:55:30;;;;;;;2.77;1.37;;;;;;;20.44;68.30;99993.00;5069480;28;20179;-62
2023/05/10 07:57:55;;;;;;;3.50;1.20;;;;;;;20.44;68.16;99990.13;5068470;28;20215;-63
2023/05/10 08:00:21;;;;;;;3.10;1.10;;;;;;;20.45;68.49;99997.50;5067921;28;20643;-63
2023/05/10 08:02:46;;;;;;;2.47;1.20;;;;;;;20.45;68.45;99994.66;5072215;28;20642;-64
2023/05/10 08:05:12;;;;;;;3.93;1.40;;;;;;;20.46;68.53;99998.34;5069654;28;20186;-62
2023/05/10 08:07:37;;;;;;;3.73;1.40;;;;;;;20.44;68.24;99995.03;5068313;28;20201;-62
2023/05/10 08:10:03;;;;;;;6.17;1.77;;;;;;;20.46;68.34;100004.88;5068604;28;20186;-61
2023/05/10 08:12:29;;;;;;;4.83;1.53;;;;;;;20.46;68.49;100001.22;5069413;28;20713;-62
2023/05/10 08:14:54;;;;;;;2.90;1.20;;;;;;;20.47;68.58;100006.53;5068792;28;20642;-62
2023/05/10 08:17:20;;;;;;;2.70;1.33;;;;;;;20.46;68.58;99998.34;5069286;28;20238;-63
2023/05/10 08:19:45;;;;;;;2.27;1.33;;;;;;;20.46;68.49;99992.63;5069333;28;20305;-62
2023/05/10 08:22:10;;;;;;;3.07;1.30;;;;;;;20.47;68.37;100000.00;5068612;28;20187;-62
2023/05/10 08:24:38;;;;;;;4.40;1.40;;;;;;;20.47;68.43;100017.19;5069700;28;20163;-62
2023/05/10 08:27:05;;;;;;;2.80;1.00;;;;;;;20.46;68.42;100007.75;5050832;28;20182;-63
2023/05/10 08:29:30;;;;;;;1.90;1.00;;;;;;;20.45;68.50;100011.84;5051434;28;20406;-61
2023/05/10 08:31:55;;;;;;;3.23;1.27;;;;;;;20.47;68.61;100011.47;5069191;28;20414;-63
2023/05/10 08:34:21;;;;;;;2.90;1.20;;;;;;;20.46;68.72;100007.75;5049886;28;20175;-62
2023/05/10 08:36:46;;;;;;;2.30;1.10;;;;;;;20.47;68.65;100009.41;5068702;28;20207;-62
2023/05/10 08:39:13;;;;;;;2.10;1.10;;;;;;;20.48;68.58;100016.81;5068621;28;20210;-62
2023/05/10 08:41:39;;;;;;;3.90;1.10;;;;;;;20.49;68.77;100017.59;5067807;28;20190;-62
2023/05/10 08:44:05;;;;;;;2.10;1.00;;;;;;;20.49;68.48;100006.97;5049691;28;20740;-62
2023/05/10 08:46:30;;;;;;;4.47;1.20;;;;;;;20.49;68.85;100012.69;5067413;28;20199;-62
2023/05/10 08:48:56;;;;;;;4.37;1.10;;;;;;;20.49;68.66;100009.84;5033683;28;20483;-62
2023/05/10 08:51:25;;;;;;;2.97;1.03;;;;;;;20.49;68.59;100011.88;5050935;28;20170;-62
2023/05/10 08:53:50;;;;;;;6.33;1.10;;;;;;;20.47;69.12;100008.59;5069236;28;20174;-62
2023/05/10 08:56:16;;;;;;;2.07;1.07;;;;;;;20.47;69.02;100017.19;5067934;28;20517;-62
2023/05/10 08:58:41;;;;;;;2.13;1.20;;;;;;;20.46;68.77;100019.22;5037084;28;20186;-62
2023/05/10 09:01:06;;;;;;;4.30;1.40;;;;;;;20.46;69.11;100030.69;5069410;28;20230;-63
2023/05/10 09:03:32;;;;;;;2.50;1.10;;;;;;;20.46;68.94;100030.69;5067001;28;20206;-63
2023/05/10 09:05:57;;;;;;;3.00;1.40;;;;;;;20.46;69.19;100027.84;5076001;28;20190;-62
2023/05/10 09:08:26;;;;;;;2.30;1.00;;;;;;;20.47;68.59;100043.81;5072097;28;20222;-62
2023/05/10 09:10:52;;;;;;;2.37;1.20;;;;;;;20.47;68.91;100040.94;5076475;28;20194;-62
2023/05/10 09:13:17;;;;;;;3.27;1.30;;;;;;;20.47;68.80;100040.13;5074834;28;20425;-63
2023/05/10 09:15:43;;;;;;;2.17;1.20;;;;;;;20.45;68.74;100033.97;5037532;28;20211;-62
2023/05/10 09:18:09;;;;;;;1.80;0.90;;;;;;;20.46;69.12;100041.38;5072605;28;20214;-62
2023/05/10 09:20:34;;;;;;;2.83;1.20;;;;;;;20.46;68.92;100047.09;5071798;28;20428;-62
2023/05/10 09:23:00;;;;;;;1.53;0.73;;;;;;;20.45;68.84;100043.41;5072726;28;20179;-62
2023/05/10 09:25:25;;;;;;;2.67;1.00;;;;;;;20.44;68.83;100043.78;5072977;28;20174;-63
2023/05/10 09:27:51;;;;;;;1.93;1.10;;;;;;;20.44;69.08;100041.75;5072069;28;20183;-61
2023/05/10 09:30:27;;;;;;;1.70;0.90;;;;;;;20.45;69.24;100049.13;5054411;28;20194;-63
2023/05/10 09:32:52;;;;;;;1.87;1.00;;;;;;;20.46;69.02;100045.03;5070938;28;20467;-62
2023/05/10 09:35:20;;;;;;;2.27;1.20;;;;;;;20.45;68.93;100043.41;5054522;28;20491;-61
2023/05/10 09:37:48;;;;;;;1.90;1.00;;;;;;;20.45;69.02;100054.88;5072181;28;20757;-62
2023/05/10 09:40:16;;;;;;;2.07;1.20;;;;;;;20.45;69.21;100051.16;5071318;28;20436;-63
2023/05/10 09:42:42;;;;;;;2.07;1.03;;;;;;;20.44;69.42;100055.25;5037712;28;20406;-62
2023/05/10 09:45:08;;;;;;;2.10;1.10;;;;;;;20.43;69.15;100054.47;5036933;28;20535;-62
2023/05/10 09:47:34;;;;;;;4.03;1.47;;;;;;;20.44;69.38;100053.22;5072280;28;20504;-62
2023/05/10 09:50:03;;;;;;;2.83;1.50;;;;;;;20.43;69.44;100063.06;5053569;28;20183;-61
2023/05/10 09:52:48;;;;;;;2.20;0.90;;;;;;;20.42;69.07;100054.84;5053700;28;20478;-61
2023/05/10 09:55:15;;;;;;;1.80;1.10;;;;;;;20.42;69.28;100052.78;5072289;28;20889;-62
2023/05/10 09:57:40;;;;;;;2.47;1.10;;;;;;;20.41;69.22;100059.75;5080178;28;20468;-62
2023/05/10 10:00:07;;;;;;;2.37;1.40;;;;;;;20.42;69.39;100067.13;5059667;28;20465;-62
2023/05/10 10:02:32;;;;;;;2.00;1.00;;;;;;;20.41;69.34;100062.63;5071031;28;20186;-61
2023/05/10 10:04:58;;;;;;;2.00;1.00;;;;;;;20.42;69.18;100061.38;5054427;28;20420;-62
2023/05/10 10:07:25;;;;;;;2.40;1.40;;;;;;;20.42;69.43;100055.66;5052904;28;20274;-62
2023/05/10 10:09:50;;;;;;;1.60;0.87;;;;;;;20.42;69.05;100055.66;5071975;28;20483;-62
2023/05/10 10:12:17;;;;;;;3.30;1.37;;;;;;;20.42;69.22;100064.25;5070766;28;20444;-63
2023/05/10 10:14:42;;;;;;;6.17;1.07;;;;;;;20.42;69.37;100061.38;5053817;28;20160;-62
2023/05/10 10:17:07;;;;;;;1.97;1.00;;;;;;;20.42;69.36;100064.25;5035293;28;20473;-63
2023/05/10 10:19:34;;;;;;;6.37;1.17;;;;;;;20.41;69.41;100068.34;5052465;28;20187;-62
2023/05/10 10:22:00;;;;;;;2.63;1.53;;;;;;;20.41;69.22;100068.34;5052860;28;20182;-62
2023/05/10 10:24:25;;;;;;;1.83;0.90;;;;;;;20.41;69.44;100062.63;5069771;28;20429;-63
2023/05/10 10:26:52;;;;;;;1.90;1.10;;;;;;;20.42;69.09;100060.59;5069627;28;20193;-62
2023/05/10 10:29:26;;;;;;;2.17;1.07;;;;;;;20.40;69.10;100069.59;5035180;28;20653;-63
2023/05/10 10:32:01;;;;;;;3.27;0.83;;;;;;;20.40;69.39;100066.72;5050788;28;20500;-62
2023/05/10 10:34:30;;;;;;;2.33;0.80;;;;;;;20.40;69.18;100063.84;5053755;28;20884;-62
2023/05/10 10:36:56;;;;;;;2.10;1.30;;;;;;;20.41;69.37;100064.69;5052173;28;20488;-63
2023/05/10 10:39:22;;;;;;;2.63;1.10;;;;;;;20.40;69.56;100069.59;5070149;28;20859;-62
2023/05/10 10:41:54;;;;;;;2.30;1.40;;;;;;;20.40;69.57;100069.59;5050361;28;20457;-62
2023/05/10 10:44:26;;;;;;;1.70;0.90;;;;;;;20.40;69.10;100063.00;5051766;28;20167;-63
2023/05/10 10:47:05;;;;;;;1.90;0.90;;;;;;;20.40;69.16;100069.59;5070213;28;20828;-62
2023/05/10 10:49:40;;;;;;;2.17;1.30;;;;;;;20.40;69.51;100072.44;5069086;28;20425;-62
2023/05/10 10:52:29;;;;;;;1.90;1.10;;;;;;;20.40;69.32;100069.59;5070781;28;20431;-62
2023/05/10 10:55:11;;;;;;;1.60;0.90;;;;;;;20.40;69.21;100071.63;5053479;28;20406;-62
2023/05/10 10:58:04;;;;;;;1.83;0.90;;;;;;;20.40;69.40;100068.75;5070626;28;20464;-62
2023/05/10 11:00:30;;;;;;;2.87;1.00;;;;;;;20.39;69.34;100070.81;5069344;28;20437;-62
2023/05/10 11:02:56;;;;;;;1.80;0.90;;;;;;;20.40;69.04;100075.31;5068943;28;20448;-62
2023/05/10 11:05:25;;;;;;;2.00;1.00;;;;;;;20.41;69.24;100071.22;5050709;28;20429;-62
2023/05/10 11:07:55;;;;;;;2.00;1.00;;;;;;;20.41;69.07;100062.63;5077669;28;20463;-63
2023/05/10 11:10:21;;;;;;;2.10;0.80;;;;;;;20.41;69.04;100064.69;5070565;28;20410;-62
2023/05/10 11:13:04;;;;;;;1.90;1.00;;;;;;;20.41;69.41;100071.22;5069825;28;20437;-62
2023/05/10 11:15:36;;;;;;;1.80;1.07;;;;;;;20.42;69.19;100070.00;5050187;28;20477;-61
2023/05/10 11:18:18;;;;;;;2.20;0.93;;;;;;;20.41;69.38;100071.22;5050415;28;20446;-62
2023/05/10 11:20:46;;;;;;;2.10;1.00;;;;;;;20.40;68.97;100066.72;5063776;28;20781;-62
2023/05/10 11:23:15;;;;;;;1.53;0.87;;;;;;;20.41;69.00;100065.50;5069513;28;21245;-62
2023/05/10 11:25:44;;;;;;;1.67;0.80;;;;;;;20.41;69.31;100067.56;5050992;28;20941;-62
2023/05/10 11:28:13;;;;;;;2.53;1.00;;;;;;;20.42;69.06;100060.59;5051293;28;20470;-63
2023/05/10 11:30:39;;;;;;;2.20;1.03;;;;;;;20.43;69.22;100063.06;5051450;28;20412;-63
2023/05/10 11:33:06;;;;;;;9.23;1.77;;;;;;;20.44;68.88;100064.69;5068290;28;20499;-63